createdAt,value
2023-01-22T00:01:00.745Z,2.81
2023-01-22T00:03:26.971Z,2.80
2023-01-22T00:05:53.186Z,2.86
2023-01-22T00:08:19.533Z,2.86
2023-01-22T00:10:52.084Z,2.85
2023-01-22T00:13:18.562Z,2.89
2023-01-22T00:15:44.805Z,2.92
2023-01-22T00:18:11.048Z,2.93
2023-01-22T00:20:37.354Z,2.91
2023-01-22T00:23:03.568Z,2.92
2023-01-22T00:25:29.776Z,2.94
2023-01-22T00:27:55.981Z,2.93
2023-01-22T00:30:22.192Z,2.90
2023-01-22T00:32:48.572Z,2.97
2023-01-22T00:35:14.784Z,2.96
2023-01-22T00:37:40.996Z,2.93
2023-01-22T00:40:07.354Z,3.01
2023-01-22T00:42:33.564Z,2.96
2023-01-22T00:44:59.774Z,3.02
2023-01-22T00:47:26.001Z,3.00
2023-01-22T00:49:52.213Z,2.96
2023-01-22T00:52:18.416Z,3.00
2023-01-22T00:54:44.637Z,2.97
2023-01-22T00:57:10.851Z,2.96
2023-01-22T00:59:37.145Z,2.96
2023-01-22T01:02:03.492Z,3.01
2023-01-22T01:04:29.830Z,2.99
2023-01-22T01:06:56.029Z,2.99
2023-01-22T01:09:22.507Z,3.00
2023-01-22T01:11:48.759Z,3.04
2023-01-22T01:14:14.978Z,3.03
2023-01-22T01:16:41.201Z,3.00
2023-01-22T01:19:07.835Z,2.98
2023-01-22T01:21:34.132Z,2.99
2023-01-22T01:24:00.447Z,2.98
2023-01-22T01:26:26.697Z,3.00
2023-01-22T01:28:52.982Z,3.03
2023-01-22T01:31:19.666Z,3.03
2023-01-22T01:33:46.012Z,3.05
2023-01-22T01:36:13.084Z,3.03
2023-01-22T01:38:39.298Z,3.03
2023-01-22T01:41:05.682Z,3.05
2023-01-22T01:43:31.885Z,3.03
2023-01-22T01:45:58.532Z,3.05
2023-01-22T01:48:57.206Z,3.05
2023-01-22T01:51:25.658Z,3.09
2023-01-22T01:53:51.853Z,3.12
2023-01-22T01:56:26.228Z,3.14
2023-01-22T01:58:53.685Z,3.16
2023-01-22T02:01:19.907Z,3.11
2023-01-22T02:03:46.173Z,3.12
2023-01-22T02:06:12.833Z,3.13
2023-01-22T02:08:39.423Z,3.06
2023-01-22T02:11:05.645Z,3.11
2023-01-22T02:13:32.494Z,3.14
2023-01-22T02:15:58.721Z,3.12
2023-01-22T02:18:24.925Z,3.14
2023-01-22T02:20:51.907Z,3.21
2023-01-22T02:23:18.101Z,3.23
2023-01-22T02:25:44.310Z,3.17
2023-01-22T02:28:10.514Z,3.16
2023-01-22T02:30:36.771Z,3.23
2023-01-22T02:33:03.006Z,3.16
2023-01-22T02:35:29.220Z,3.20
2023-01-22T02:37:55.412Z,3.20
2023-01-22T02:40:21.634Z,3.22
2023-01-22T02:42:47.837Z,3.24
2023-01-22T02:45:14.057Z,3.23
2023-01-22T02:47:40.268Z,3.17
2023-01-22T02:50:06.588Z,3.22
2023-01-22T02:52:32.811Z,3.23
2023-01-22T02:54:59.025Z,3.24
2023-01-22T02:57:25.234Z,3.19
2023-01-22T02:59:51.444Z,3.22
2023-01-22T03:02:17.725Z,3.21
2023-01-22T03:04:43.975Z,3.27
2023-01-22T03:07:10.196Z,3.24
2023-01-22T03:09:36.398Z,3.26
2023-01-22T03:12:02.674Z,3.29
2023-01-22T03:14:28.882Z,3.26
2023-01-22T03:16:55.095Z,3.26
2023-01-22T03:19:21.367Z,3.29
2023-01-22T03:21:47.575Z,3.28
2023-01-22T03:24:13.776Z,3.25
2023-01-22T03:26:39.999Z,3.27
2023-01-22T03:29:06.210Z,3.29
2023-01-22T03:31:32.538Z,3.26
2023-01-22T03:33:58.783Z,3.25
2023-01-22T03:36:25.012Z,3.28
2023-01-22T03:38:51.240Z,3.26
2023-01-22T03:41:17.462Z,3.25
2023-01-22T03:43:44.133Z,3.26
2023-01-22T03:46:11.117Z,3.26
2023-01-22T03:48:37.361Z,3.24
2023-01-22T03:51:04.376Z,3.28
2023-01-22T03:53:30.605Z,3.21
2023-01-22T03:55:57.579Z,3.26
2023-01-22T03:58:23.938Z,3.23
2023-01-22T04:00:50.285Z,3.24
2023-01-22T04:03:16.544Z,3.30
2023-01-22T04:05:42.757Z,3.22
2023-01-22T04:08:08.979Z,3.27
2023-01-22T04:10:35.190Z,3.24
2023-01-22T04:13:01.423Z,3.23
2023-01-22T04:15:27.622Z,3.21
2023-01-22T04:17:53.831Z,3.22
2023-01-22T04:20:20.160Z,3.23
2023-01-22T04:22:47.127Z,3.19
2023-01-22T04:25:13.337Z,3.26
2023-01-22T04:27:39.544Z,3.21
2023-01-22T04:30:06.135Z,3.22
2023-01-22T04:32:32.362Z,3.22
2023-01-22T04:34:58.561Z,3.19
2023-01-22T04:37:24.791Z,3.19
2023-01-22T04:39:50.995Z,3.19
2023-01-22T04:42:17.217Z,3.20
2023-01-22T04:44:43.424Z,3.21
2023-01-22T04:47:09.634Z,3.27
2023-01-22T04:49:35.831Z,3.20
2023-01-22T04:52:02.052Z,3.16
2023-01-22T04:54:28.260Z,3.19
2023-01-22T04:56:54.476Z,3.17
2023-01-22T04:59:20.675Z,3.20
2023-01-22T05:01:46.878Z,3.17
2023-01-22T05:04:13.097Z,3.17
2023-01-22T05:06:39.305Z,3.20
2023-01-22T05:09:05.505Z,3.11
2023-01-22T05:11:31.702Z,3.13
2023-01-22T05:13:57.927Z,3.12
2023-01-22T05:16:24.119Z,3.13
2023-01-22T05:18:50.347Z,3.18
2023-01-22T05:21:16.542Z,3.20
2023-01-22T05:23:42.747Z,3.21
2023-01-22T05:26:09.144Z,3.18
2023-01-22T05:28:35.394Z,3.24
2023-01-22T05:31:01.699Z,3.20
2023-01-22T05:33:31.241Z,3.18
2023-01-22T05:35:57.831Z,3.19
2023-01-22T05:38:24.248Z,3.16
2023-01-22T05:40:50.447Z,3.21
2023-01-22T05:43:16.654Z,3.25
2023-01-22T05:45:42.855Z,3.21
2023-01-22T05:48:09.063Z,3.21
2023-01-22T05:50:35.263Z,3.19
2023-01-22T05:53:01.485Z,3.23
2023-01-22T05:55:27.682Z,3.09
2023-01-22T05:57:53.884Z,3.14
2023-01-22T06:00:20.376Z,3.14
2023-01-22T06:02:46.689Z,3.17
2023-01-22T06:05:13.000Z,3.20
2023-01-22T06:07:39.216Z,3.23
2023-01-22T06:10:05.628Z,3.22
2023-01-22T06:12:31.847Z,3.22
2023-01-22T06:14:58.064Z,3.18
2023-01-22T06:17:24.261Z,3.21
2023-01-22T06:19:50.469Z,3.27
2023-01-22T06:22:16.681Z,3.24
2023-01-22T06:24:42.912Z,3.19
2023-01-22T06:27:09.119Z,3.25
2023-01-22T06:29:35.333Z,3.23
2023-01-22T06:32:01.547Z,3.20
2023-01-22T06:34:27.756Z,3.26
2023-01-22T06:36:53.958Z,3.26
2023-01-22T06:39:20.165Z,3.25
2023-01-22T06:41:46.971Z,3.19
2023-01-22T06:44:13.193Z,3.18
2023-01-22T06:46:39.462Z,3.23
2023-01-22T06:49:05.700Z,3.27
2023-01-22T06:51:31.934Z,3.23
2023-01-22T06:53:58.950Z,3.13
2023-01-22T06:56:25.149Z,3.21
2023-01-22T06:58:51.366Z,3.26
2023-01-22T07:01:17.634Z,3.21
2023-01-22T07:03:43.903Z,3.22
2023-01-22T07:06:10.137Z,3.22
2023-01-22T07:08:36.353Z,3.30
2023-01-22T07:11:02.561Z,3.28
2023-01-22T07:13:28.767Z,3.19
2023-01-22T07:15:55.068Z,3.20
2023-01-22T07:18:21.298Z,3.22
2023-01-22T07:20:47.573Z,3.18
2023-01-22T07:23:13.800Z,3.18
2023-01-22T07:25:40.071Z,3.14
2023-01-22T07:28:06.355Z,3.17
2023-01-22T07:30:32.682Z,3.15
2023-01-22T07:32:59.365Z,3.20
2023-01-22T07:35:25.723Z,3.12
2023-01-22T07:37:52.260Z,3.20
2023-01-22T07:40:18.740Z,3.21
2023-01-22T07:42:45.069Z,3.21
2023-01-22T07:45:11.279Z,3.31
2023-01-22T07:47:37.477Z,3.29
2023-01-22T07:50:03.797Z,3.27
2023-01-22T07:52:30.006Z,3.26
2023-01-22T07:54:56.213Z,3.28
2023-01-22T07:57:22.411Z,3.24
2023-01-22T07:59:48.620Z,3.24
2023-01-22T08:02:14.881Z,3.26
2023-01-22T08:04:41.410Z,3.32
2023-01-22T08:07:14.140Z,3.29
2023-01-22T08:09:40.375Z,3.30
2023-01-22T08:12:06.601Z,3.30
2023-01-22T08:14:32.815Z,3.30
2023-01-22T08:16:59.046Z,3.34
2023-01-22T08:19:25.236Z,3.28
2023-01-22T08:21:51.454Z,3.32
2023-01-22T08:24:17.656Z,3.34
2023-01-22T08:26:43.874Z,3.33
2023-01-22T08:29:10.086Z,3.26
2023-01-22T08:31:36.402Z,3.38
2023-01-22T08:34:02.701Z,3.29
2023-01-22T08:36:28.951Z,3.34
2023-01-22T08:38:55.179Z,3.32
2023-01-22T08:41:21.517Z,3.34
2023-01-22T08:43:47.733Z,3.40
2023-01-22T08:46:14.048Z,3.32
2023-01-22T08:48:40.241Z,3.38
2023-01-22T08:51:06.450Z,3.34
2023-01-22T08:53:32.681Z,3.37
2023-01-22T08:55:58.893Z,3.35
2023-01-22T08:58:25.091Z,3.31
2023-01-22T09:00:51.372Z,3.37
2023-01-22T09:03:17.602Z,3.35
2023-01-22T09:05:43.821Z,3.38
2023-01-22T09:08:10.029Z,3.40
2023-01-22T09:10:36.236Z,3.45
2023-01-22T09:13:02.452Z,3.41
2023-01-22T09:15:28.675Z,3.41
2023-01-22T09:17:54.887Z,3.44
2023-01-22T09:20:21.281Z,3.41
2023-01-22T09:22:47.840Z,3.46
2023-01-22T09:25:14.175Z,3.42
2023-01-22T09:27:40.374Z,3.42
2023-01-22T09:30:06.866Z,3.42
2023-01-22T09:32:33.085Z,3.40
2023-01-22T09:34:59.295Z,3.43
2023-01-22T09:37:25.508Z,3.50
2023-01-22T09:39:51.710Z,3.50
2023-01-22T09:42:21.912Z,3.47
2023-01-22T09:44:49.022Z,3.52
2023-01-22T09:47:16.545Z,3.49
2023-01-22T09:49:53.960Z,3.52
2023-01-22T09:52:20.246Z,3.56
2023-01-22T09:54:46.446Z,3.59
2023-01-22T09:57:26.467Z,3.60
2023-01-22T09:59:57.226Z,3.64
2023-01-22T10:02:25.466Z,3.65
2023-01-22T10:04:52.450Z,3.72
2023-01-22T10:07:31.541Z,3.66
2023-01-22T10:10:02.092Z,3.68
2023-01-22T10:12:28.455Z,3.69
2023-01-22T10:14:54.656Z,3.74
2023-01-22T10:17:21.763Z,3.77
2023-01-22T10:19:49.147Z,3.73
2023-01-22T10:22:22.491Z,3.75
2023-01-22T10:24:48.882Z,3.75
2023-01-22T10:27:15.481Z,3.76
2023-01-22T10:29:42.035Z,3.75
2023-01-22T10:32:19.870Z,3.76
2023-01-22T10:34:56.749Z,3.78
2023-01-22T10:37:22.963Z,3.83
2023-01-22T10:39:49.171Z,3.79
2023-01-22T10:42:16.013Z,3.78
2023-01-22T10:44:42.229Z,3.82
2023-01-22T10:47:09.281Z,3.87
2023-01-22T10:49:35.494Z,3.92
2023-01-22T10:52:04.914Z,3.92
2023-01-22T10:54:32.209Z,3.88
2023-01-22T10:57:13.859Z,3.83
2023-01-22T10:59:40.222Z,3.87
2023-01-22T11:02:11.606Z,3.87
2023-01-22T11:04:37.859Z,3.87
2023-01-22T11:07:05.685Z,3.80
2023-01-22T11:09:50.675Z,3.78
2023-01-22T11:12:29.535Z,3.78
2023-01-22T11:14:58.717Z,3.74
2023-01-22T11:17:25.503Z,3.70
2023-01-22T11:19:56.836Z,3.69
2023-01-22T11:22:27.667Z,3.73
2023-01-22T11:24:53.894Z,3.72
2023-01-22T11:27:33.398Z,3.73
2023-01-22T11:30:21.128Z,3.80
2023-01-22T11:33:06.635Z,3.79
2023-01-22T11:35:37.770Z,3.69
2023-01-22T11:38:10.075Z,3.77
2023-01-22T11:40:39.594Z,3.75
2023-01-22T11:43:09.213Z,3.85
2023-01-22T11:45:41.538Z,3.80
2023-01-22T11:48:14.529Z,3.74
2023-01-22T11:50:49.262Z,3.77
2023-01-22T11:53:36.565Z,3.85
2023-01-22T11:56:17.654Z,3.82
2023-01-22T11:58:46.844Z,3.75
2023-01-22T12:01:24.534Z,3.82
2023-01-22T12:04:09.769Z,3.78
2023-01-22T12:06:35.930Z,3.77
2023-01-22T12:09:21.028Z,3.87
2023-01-22T12:11:59.240Z,3.79
2023-01-22T12:14:44.125Z,3.78
2023-01-22T12:17:16.092Z,3.77
2023-01-22T12:19:58.288Z,3.89
2023-01-22T12:22:29.159Z,3.76
2023-01-22T12:24:58.432Z,3.79
2023-01-22T12:27:44.376Z,3.83
2023-01-22T12:30:15.984Z,3.84
2023-01-22T12:32:42.629Z,3.86
2023-01-22T12:35:14.634Z,3.79
2023-01-22T12:37:50.499Z,3.88
2023-01-22T12:40:16.919Z,3.87
2023-01-22T12:42:44.836Z,3.84
2023-01-22T12:45:14.069Z,3.88
2023-01-22T12:47:59.054Z,3.85
2023-01-22T12:50:25.655Z,3.81
2023-01-22T12:52:58.847Z,3.79
2023-01-22T12:55:28.105Z,3.85
2023-01-22T12:57:54.325Z,3.93
2023-01-22T13:00:23.401Z,3.79
2023-01-22T13:02:49.669Z,3.78
2023-01-22T13:05:31.286Z,3.83
2023-01-22T13:08:16.262Z,3.91
2023-01-22T13:10:52.713Z,3.83
2023-01-22T13:13:23.344Z,3.82
2023-01-22T13:15:53.507Z,3.85
2023-01-22T13:18:20.601Z,3.80
2023-01-22T13:20:58.793Z,3.76
2023-01-22T13:23:25.003Z,3.80
2023-01-22T13:25:54.710Z,3.73
2023-01-22T13:28:21.102Z,3.70
2023-01-22T13:31:00.621Z,3.71
2023-01-22T13:33:26.878Z,3.64
2023-01-22T13:35:53.098Z,3.60
2023-01-22T13:38:20.731Z,3.67
2023-01-22T13:40:53.344Z,3.65
2023-01-22T13:43:19.589Z,3.55
2023-01-22T13:45:45.811Z,3.53
2023-01-22T13:48:18.558Z,3.54
2023-01-22T13:50:51.822Z,3.59
2023-01-22T13:53:34.305Z,3.58
2023-01-22T13:56:00.507Z,3.65
2023-01-22T13:58:47.865Z,3.56
2023-01-22T14:01:41.384Z,3.60
2023-01-22T14:04:07.953Z,3.49
2023-01-22T14:06:46.966Z,3.55
2023-01-22T14:09:13.162Z,3.57
2023-01-22T14:11:39.821Z,3.56
2023-01-22T14:14:15.913Z,3.49
2023-01-22T14:16:42.167Z,3.50
2023-01-22T14:19:08.389Z,3.46
2023-01-22T14:21:34.600Z,3.48
2023-01-22T14:24:00.797Z,3.41
2023-01-22T14:26:27.015Z,3.39
2023-01-22T14:28:53.209Z,3.41
2023-01-22T14:31:19.444Z,3.41
2023-01-22T14:33:45.660Z,3.36
2023-01-22T14:36:11.869Z,3.45
2023-01-22T14:38:38.088Z,3.43
2023-01-22T14:41:04.698Z,3.43
2023-01-22T14:43:30.909Z,3.48
2023-01-22T14:45:57.244Z,3.41
2023-01-22T14:48:23.484Z,3.43
2023-01-22T14:50:49.858Z,3.41
2023-01-22T14:53:16.894Z,3.44
2023-01-22T14:55:43.161Z,3.43
2023-01-22T14:58:09.724Z,3.43
2023-01-22T15:00:35.935Z,3.31
2023-01-22T15:03:02.138Z,3.35
2023-01-22T15:05:28.413Z,3.32
2023-01-22T15:07:54.624Z,3.33
2023-01-22T15:10:21.094Z,3.27
2023-01-22T15:12:48.079Z,3.25
2023-01-22T15:15:15.043Z,3.21
2023-01-22T15:17:41.259Z,3.25
2023-01-22T15:20:07.910Z,3.17
2023-01-22T15:22:34.127Z,3.12
2023-01-22T15:25:00.345Z,3.18
2023-01-22T15:27:26.559Z,3.14
2023-01-22T15:29:52.778Z,3.18
2023-01-22T15:32:18.994Z,3.17
2023-01-22T15:34:45.194Z,3.10
2023-01-22T15:37:11.408Z,3.14
2023-01-22T15:39:37.616Z,3.08
2023-01-22T15:42:03.893Z,3.05
2023-01-22T15:44:30.093Z,3.05
2023-01-22T15:46:56.304Z,3.07
2023-01-22T15:49:22.506Z,3.13
2023-01-22T15:51:48.723Z,2.99
2023-01-22T15:54:15.276Z,3.01
2023-01-22T15:56:41.506Z,3.01
2023-01-22T15:59:07.714Z,3.02
2023-01-22T16:01:33.986Z,2.98
2023-01-22T16:04:00.230Z,2.97
2023-01-22T16:06:27.351Z,3.02
2023-01-22T16:08:54.314Z,2.94
2023-01-22T16:11:20.706Z,2.88
2023-01-22T16:13:46.974Z,2.81
2023-01-22T16:16:14.209Z,2.81
2023-01-22T16:18:40.448Z,2.81
2023-01-22T16:21:06.863Z,2.78
2023-01-22T16:23:33.365Z,2.76
2023-01-22T16:25:59.580Z,2.77
2023-01-22T16:28:25.802Z,2.75
2023-01-22T16:30:52.191Z,2.80
2023-01-22T16:33:20.083Z,2.76
2023-01-22T16:35:46.298Z,2.79
2023-01-22T16:38:12.513Z,2.78
2023-01-22T16:40:38.870Z,2.77
2023-01-22T16:43:05.101Z,2.73
2023-01-22T16:45:31.398Z,2.71
2023-01-22T16:47:57.623Z,2.74
2023-01-22T16:50:23.846Z,2.73
2023-01-22T16:52:50.071Z,2.71
2023-01-22T16:55:16.274Z,2.71
2023-01-22T16:57:42.491Z,2.74
2023-01-22T17:00:08.897Z,2.75
2023-01-22T17:02:35.206Z,2.73
2023-01-22T17:05:01.494Z,2.75
2023-01-22T17:07:33.664Z,2.74
2023-01-22T17:10:00.760Z,2.79
2023-01-22T17:12:27.011Z,2.77
2023-01-22T17:14:53.237Z,2.74
2023-01-22T17:17:19.460Z,2.76
2023-01-22T17:19:45.668Z,2.76
2023-01-22T17:22:11.856Z,2.74
2023-01-22T17:24:38.076Z,2.80
2023-01-22T17:27:04.281Z,2.83
2023-01-22T17:29:30.808Z,2.82
2023-01-22T17:31:57.128Z,2.84
2023-01-22T17:34:23.362Z,2.83
2023-01-22T17:36:49.577Z,2.87
2023-01-22T17:39:15.850Z,2.93
2023-01-22T17:41:42.173Z,2.83
2023-01-22T17:44:08.392Z,2.81
2023-01-22T17:46:34.609Z,2.83
2023-01-22T17:49:00.936Z,2.77
2023-01-22T17:51:27.609Z,2.78
2023-01-22T17:53:54.204Z,2.80
2023-01-22T17:56:21.291Z,2.83
2023-01-22T17:58:49.033Z,2.82
2023-01-22T18:01:15.315Z,2.81
2023-01-22T18:03:41.585Z,2.74
2023-01-22T18:06:07.800Z,2.73
2023-01-22T18:08:34.111Z,2.69
2023-01-22T18:11:01.992Z,2.67
2023-01-22T18:13:28.207Z,2.71
2023-01-22T18:15:54.431Z,2.68
2023-01-22T18:18:20.647Z,2.69
2023-01-22T18:20:46.850Z,2.71
2023-01-22T18:23:13.293Z,2.76
2023-01-22T18:25:40.183Z,2.72
2023-01-22T18:28:06.382Z,2.68
2023-01-22T18:30:33.586Z,2.67
2023-01-22T18:32:59.789Z,2.64
2023-01-22T18:35:26.010Z,2.61
2023-01-22T18:37:52.219Z,2.58
2023-01-22T18:40:18.465Z,2.56
2023-01-22T18:42:44.656Z,2.62
2023-01-22T18:45:11.104Z,2.63
2023-01-22T18:47:37.308Z,2.60
2023-01-22T18:50:03.564Z,2.57
2023-01-22T18:52:29.771Z,2.52
2023-01-22T18:54:55.987Z,2.51
2023-01-22T18:57:22.183Z,2.51
2023-01-22T18:59:48.387Z,2.48
2023-01-22T19:02:14.596Z,2.46
2023-01-22T19:04:40.815Z,2.48
2023-01-22T19:07:07.025Z,2.50
2023-01-22T19:09:33.241Z,2.47
2023-01-22T19:11:59.488Z,2.48
2023-01-22T19:14:25.760Z,2.49
2023-01-22T19:16:52.177Z,2.54
2023-01-22T19:19:18.425Z,2.53
2023-01-22T19:21:44.967Z,2.55
2023-01-22T19:24:11.186Z,2.59
2023-01-22T19:26:37.434Z,2.55
2023-01-22T19:29:04.828Z,2.57
2023-01-22T19:31:32.043Z,2.58
2023-01-22T19:33:58.296Z,2.58
2023-01-22T19:36:25.337Z,2.60
2023-01-22T19:38:51.559Z,2.64
2023-01-22T19:41:17.816Z,2.58
2023-01-22T19:43:44.032Z,2.60
2023-01-22T19:46:12.318Z,2.54
2023-01-22T19:48:38.695Z,2.57
2023-01-22T19:51:05.821Z,2.52
2023-01-22T19:53:32.039Z,2.49
2023-01-22T19:55:58.258Z,2.48
2023-01-22T19:58:24.502Z,2.41
2023-01-22T20:00:50.844Z,2.34
2023-01-22T20:03:17.060Z,2.25
2023-01-22T20:05:43.711Z,2.14
2023-01-22T20:08:10.190Z,2.09
2023-01-22T20:10:36.543Z,2.07
2023-01-22T20:13:03.510Z,2.10
2023-01-22T20:15:29.779Z,2.17
2023-01-22T20:17:55.987Z,2.21
2023-01-22T20:20:22.193Z,2.19
2023-01-22T20:22:48.747Z,2.23
2023-01-22T20:25:15.003Z,2.25
2023-01-22T20:27:41.351Z,2.25
2023-01-22T20:30:07.733Z,2.26
2023-01-22T20:32:33.937Z,2.24
2023-01-22T20:35:00.159Z,2.30
2023-01-22T20:37:26.395Z,2.26
2023-01-22T20:39:52.813Z,2.24
2023-01-22T20:42:19.005Z,2.24
2023-01-22T20:44:46.131Z,2.24
2023-01-22T20:47:12.416Z,2.24
2023-01-22T20:49:38.632Z,2.21
2023-01-22T20:52:04.910Z,2.17
2023-01-22T20:54:31.229Z,2.22
2023-01-22T20:56:57.436Z,2.18
2023-01-22T20:59:23.631Z,2.23
2023-01-22T21:01:49.861Z,2.26
2023-01-22T21:04:16.154Z,2.28
2023-01-22T21:06:42.399Z,2.25
2023-01-22T21:09:08.770Z,2.24
2023-01-22T21:11:35.391Z,2.27
2023-01-22T21:14:01.733Z,2.34
2023-01-22T21:16:28.747Z,2.24
2023-01-22T21:18:55.378Z,2.21
2023-01-22T21:21:21.586Z,2.24
2023-01-22T21:23:48.062Z,2.31
2023-01-22T21:26:14.568Z,2.27
2023-01-22T21:28:40.782Z,2.23
2023-01-22T21:31:07.652Z,2.22
2023-01-22T21:33:33.857Z,2.21
2023-01-22T21:36:04.100Z,2.22
2023-01-22T21:38:30.322Z,2.20
2023-01-22T21:41:06.445Z,2.20
2023-01-22T21:43:32.713Z,2.23
2023-01-22T21:45:59.021Z,2.20
2023-01-22T21:48:25.267Z,2.23
2023-01-22T21:50:51.557Z,2.25
2023-01-22T21:53:17.779Z,2.21
2023-01-22T21:55:50.914Z,2.19
2023-01-22T21:58:17.115Z,2.16
2023-01-22T22:00:43.374Z,2.16
2023-01-22T22:03:09.628Z,2.16
2023-01-22T22:05:35.856Z,2.21
2023-01-22T22:08:02.048Z,2.18
2023-01-22T22:10:28.294Z,2.16
2023-01-22T22:12:54.515Z,2.18
2023-01-22T22:15:20.709Z,2.18
2023-01-22T22:17:46.923Z,2.16
2023-01-22T22:20:13.123Z,2.14
2023-01-22T22:22:39.335Z,2.13
2023-01-22T22:25:05.691Z,2.16
2023-01-22T22:27:31.901Z,2.12
2023-01-22T22:29:58.107Z,2.13
2023-01-22T22:32:24.335Z,2.02
2023-01-22T22:34:50.533Z,2.06
2023-01-22T22:37:16.938Z,2.08
2023-01-22T22:39:43.139Z,2.04
2023-01-22T22:42:09.376Z,2.00
2023-01-22T22:44:35.981Z,2.01
2023-01-22T22:47:02.215Z,2.04
2023-01-22T22:49:28.451Z,2.06
2023-01-22T22:51:54.673Z,2.02
2023-01-22T22:54:20.870Z,2.01
2023-01-22T22:56:47.538Z,1.99
2023-01-22T22:59:13.849Z,2.01
2023-01-22T23:01:40.064Z,1.98
2023-01-22T23:04:06.439Z,1.99
2023-01-22T23:06:33.021Z,1.97
2023-01-22T23:08:59.279Z,1.96
2023-01-22T23:11:27.026Z,1.96
2023-01-22T23:13:53.273Z,1.95
2023-01-22T23:16:20.019Z,1.97
2023-01-22T23:18:46.914Z,1.95
2023-01-22T23:21:14.021Z,1.97
2023-01-22T23:23:40.415Z,1.99
2023-01-22T23:26:08.161Z,2.00
2023-01-22T23:28:34.447Z,2.02
2023-01-22T23:31:04.923Z,2.01
2023-01-22T23:33:31.196Z,2.01
2023-01-22T23:36:01.100Z,1.99
2023-01-22T23:38:27.308Z,1.99
2023-01-22T23:40:57.405Z,2.01
2023-01-22T23:43:23.635Z,2.01
2023-01-22T23:45:49.878Z,2.05
2023-01-22T23:48:16.096Z,2.03
2023-01-22T23:50:45.549Z,2.04
2023-01-22T23:53:11.766Z,2.05
2023-01-22T23:55:37.966Z,2.07
2023-01-22T23:58:04.174Z,2.03
